Time;durP1;ratioP1;P1;durP2;ratioP2;P2;SDS_P1;SDS_P2;PMS_P1;PMS_P2;Temp;Humidity;BMP_temperature;BMP_pressure;BME280_temperature;BME280_humidity;BME280_pressure;Samples;Min_cycle;Max_cycle;Signal;HPM_P1;HPM_P2
2023/07/06 00:01:00;;;;;;;2.50;2.00;;;18.70;64.20;;;;;;4956692;28;20041;-75
2023/07/06 00:03:26;;;;;;;2.58;1.85;;;18.60;64.20;;;;;;4955461;29;20528;-76
2023/07/06 00:05:52;;;;;;;2.33;1.92;;;18.60;64.20;;;;;;4955595;29;20059;-75
2023/07/06 00:08:18;;;;;;;1.70;1.60;;;18.60;64.30;;;;;;4955231;29;20078;-75
2023/07/06 00:10:46;;;;;;;2.17;1.83;;;18.50;64.20;;;;;;4939425;29;20059;-75
2023/07/06 00:13:12;;;;;;;3.00;2.00;;;18.60;64.40;;;;;;4955665;29;20400;-76
2023/07/06 00:15:42;;;;;;;2.35;1.92;;;18.50;64.30;;;;;;4955672;29;20035;-75
2023/07/06 00:18:09;;;;;;;2.13;1.85;;;18.50;64.30;;;;;;4940125;29;20038;-75
2023/07/06 00:20:39;;;;;;;2.58;2.00;;;18.50;64.30;;;;;;4956447;29;20035;-75
2023/07/06 00:23:05;;;;;;;2.38;1.90;;;18.40;64.30;;;;;;4940052;29;20101;-74
2023/07/06 00:25:33;;;;;;;3.10;2.22;;;18.50;64.40;;;;;;4939337;29;20036;-74
2023/07/06 00:28:03;;;;;;;3.17;1.90;;;18.40;64.40;;;;;;4939725;29;20043;-74
2023/07/06 00:30:52;;;;;;;2.30;2.00;;;18.40;64.40;;;;;;4956124;29;20031;-74
2023/07/06 00:33:21;;;;;;;2.58;2.08;;;18.40;64.50;;;;;;4954787;29;20038;-76
2023/07/06 00:35:48;;;;;;;2.20;2.00;;;18.40;64.40;;;;;;4956836;28;20027;-75
2023/07/06 00:38:17;;;;;;;2.55;2.05;;;18.40;64.50;;;;;;4955148;29;20090;-74
2023/07/06 00:40:52;;;;;;;2.88;2.03;;;18.30;64.60;;;;;;4954957;28;20488;-75
2023/07/06 00:43:20;;;;;;;;;;;18.30;64.60;;;;;;4957104;29;20031;-76
2023/07/06 00:45:51;;;;;;;2.15;1.85;;;18.20;64.30;;;;;;4954831;29;19924;-75
2023/07/06 00:48:48;;;;;;;2.10;1.88;;;18.20;64.40;;;;;;4939019;29;20171;-75
2023/07/06 00:51:22;;;;;;;2.92;1.80;;;18.20;64.60;;;;;;4942997;29;20047;-74
2023/07/06 00:53:54;;;;;;;1.95;1.75;;;18.20;64.60;;;;;;4938812;29;20035;-74
2023/07/06 00:56:25;;;;;;;2.17;1.75;;;18.20;64.60;;;;;;4939076;29;20031;-74
2023/07/06 00:58:55;;;;;;;2.10;1.75;;;18.20;64.70;;;;;;4955695;29;20042;-75
2023/07/06 01:01:23;;;;;;;2.53;1.77;;;18.10;64.70;;;;;;4956193;28;20114;-75
2023/07/06 01:03:53;;;;;;;2.78;1.73;;;18.10;64.80;;;;;;4955814;29;20064;-76
2023/07/06 01:06:26;;;;;;;3.30;2.00;;;18.10;64.80;;;;;;4954900;28;20034;-74
2023/07/06 01:08:53;;;;;;;3.72;2.45;;;18.10;64.80;;;;;;4955225;29;20050;-75
2023/07/06 01:11:20;;;;;;;3.30;1.92;;;18.10;64.80;;;;;;4955443;28;20110;-75
2023/07/06 01:13:51;;;;;;;3.25;2.10;;;18.10;64.80;;;;;;4938558;29;20091;-76
2023/07/06 01:16:27;;;;;;;2.42;1.98;;;18.10;64.90;;;;;;4955133;28;20364;-76
2023/07/06 01:19:15;;;;;;;3.28;2.10;;;18.10;65.00;;;;;;4954072;29;20035;-75
2023/07/06 01:22:12;;;;;;;2.50;1.83;;;18.10;65.00;;;;;;4954412;29;20027;-75
2023/07/06 01:25:11;;;;;;;2.75;2.20;;;18.10;65.00;;;;;;4955098;29;20431;-75
2023/07/06 01:27:49;;;;;;;1.77;1.67;;;18.00;64.90;;;;;;4954288;29;20040;-75
2023/07/06 01:30:27;;;;;;;2.85;1.95;;;18.00;65.00;;;;;;4955439;28;20122;-76
2023/07/06 01:33:11;;;;;;;2.45;1.95;;;18.00;65.00;;;;;;4955204;28;20035;-75
2023/07/06 01:35:53;;;;;;;3.38;2.20;;;18.00;65.00;;;;;;4956024;28;20038;-74
2023/07/06 01:38:22;;;;;;;3.38;2.17;;;18.00;65.10;;;;;;4954671;29;20063;-74
2023/07/06 01:40:49;;;;;;;3.03;2.10;;;18.00;65.00;;;;;;4954573;29;20086;-74
2023/07/06 01:43:16;;;;;;;3.40;2.00;;;18.00;65.00;;;;;;4954099;29;20074;-76
2023/07/06 01:45:44;;;;;;;2.78;1.85;;;18.00;65.10;;;;;;4954070;29;20476;-76
2023/07/06 01:48:11;;;;;;;2.17;1.98;;;17.90;65.10;;;;;;4954009;29;20354;-76
2023/07/06 01:50:54;;;;;;;3.20;2.20;;;17.90;65.20;;;;;;4954121;29;20031;-76
2023/07/06 01:53:25;;;;;;;2.78;2.05;;;18.00;65.30;;;;;;4938868;29;20361;-76
2023/07/06 01:56:04;;;;;;;2.97;2.40;;;18.00;65.30;;;;;;4938072;28;20042;-75
2023/07/06 01:58:43;;;;;;;3.55;2.40;;;17.90;65.30;;;;;;4954268;29;20038;-74
2023/07/06 02:01:16;;;;;;;2.85;2.20;;;17.90;65.30;;;;;;4953907;29;20126;-76
2023/07/06 02:03:42;;;;;;;3.65;2.13;;;17.90;65.20;;;;;;4953980;28;20039;-75
2023/07/06 02:06:11;;;;;;;3.10;2.15;;;17.90;65.30;;;;;;4937996;29;20043;-74
2023/07/06 02:08:41;;;;;;;3.03;2.10;;;17.90;65.40;;;;;;4938735;29;20039;-75
2023/07/06 02:11:13;;;;;;;2.75;2.33;;;17.90;65.40;;;;;;4955148;28;20385;-76
2023/07/06 02:13:39;;;;;;;3.45;2.38;;;17.80;65.30;;;;;;4954535;29;20027;-74
2023/07/06 02:16:05;;;;;;;2.88;2.28;;;17.80;65.30;;;;;;4954502;29;20038;-75
2023/07/06 02:18:33;;;;;;;3.65;2.45;;;17.80;65.30;;;;;;4938992;29;20035;-74
2023/07/06 02:21:03;;;;;;;2.30;2.03;;;17.80;65.30;;;;;;4958772;29;20063;-75
2023/07/06 02:23:29;;;;;;;3.08;2.30;;;17.80;65.30;;;;;;4941446;29;20031;-74
2023/07/06 02:25:55;;;;;;;3.08;2.13;;;17.80;65.30;;;;;;4958956;28;20436;-75
2023/07/06 02:28:22;;;;;;;2.38;2.03;;;17.80;65.40;;;;;;4957837;29;20138;-74
2023/07/06 02:30:49;;;;;;;3.17;2.63;;;17.80;65.50;;;;;;4941435;29;20546;-75
2023/07/06 02:33:19;;;;;;;4.38;2.15;;;17.70;65.40;;;;;;4957472;28;20417;-75
2023/07/06 02:35:48;;;;;;;2.92;2.30;;;17.80;65.50;;;;;;4957477;29;20027;-75
2023/07/06 02:38:17;;;;;;;2.33;1.92;;;17.80;65.60;;;;;;4957405;28;20036;-76
2023/07/06 02:40:43;;;;;;;2.70;2.22;;;17.70;65.50;;;;;;4957462;28;20036;-75
2023/07/06 02:43:09;;;;;;;3.78;2.45;;;17.70;65.50;;;;;;4957352;28;20567;-75
2023/07/06 02:45:36;;;;;;;2.70;2.10;;;17.70;65.60;;;;;;4957480;29;20134;-75
2023/07/06 02:48:05;;;;;;;2.10;1.90;;;17.70;65.60;;;;;;4956915;29;20035;-75
2023/07/06 02:50:32;;;;;;;2.45;1.95;;;17.60;65.50;;;;;;4957734;29;20361;-76
2023/07/06 02:52:58;;;;;;;2.78;2.08;;;17.70;65.60;;;;;;4958161;28;20039;-75
2023/07/06 02:55:28;;;;;;;3.20;2.65;;;17.70;65.60;;;;;;4958078;28;20031;-75
2023/07/06 02:57:54;;;;;;;2.95;2.25;;;17.70;65.70;;;;;;4956899;29;20035;-75
2023/07/06 03:00:20;;;;;;;3.42;2.13;;;17.60;65.60;;;;;;4957045;28;20480;-75
2023/07/06 03:02:49;;;;;;;3.47;2.28;;;17.60;65.60;;;;;;4957420;29;20118;-74
2023/07/06 03:05:20;;;;;;;2.20;2.00;;;17.60;65.70;;;;;;4957903;28;20034;-74
2023/07/06 03:07:46;;;;;;;3.15;2.13;;;17.60;65.60;;;;;;4956410;28;20105;-74
2023/07/06 03:10:12;;;;;;;2.58;2.17;;;17.60;65.70;;;;;;4956508;29;20487;-75
2023/07/06 03:12:38;;;;;;;3.70;2.70;;;17.60;65.70;;;;;;4957399;29;20365;-75
2023/07/06 03:15:12;;;;;;;3.65;2.33;;;17.60;65.70;;;;;;4956847;29;20046;-75
2023/07/06 03:17:39;;;;;;;3.17;2.13;;;17.60;65.70;;;;;;4941367;29;20094;-76
2023/07/06 03:20:17;;;;;;;3.42;2.33;;;17.60;65.70;;;;;;4957445;28;20539;-74
2023/07/06 03:22:46;;;;;;;3.75;2.35;;;17.60;65.80;;;;;;4957074;29;20043;-75
2023/07/06 03:25:25;;;;;;;2.38;1.92;;;17.60;65.80;;;;;;4941018;28;20535;-74
2023/07/06 03:27:52;;;;;;;2.85;2.00;;;17.60;65.90;;;;;;4957391;29;20047;-76
2023/07/06 03:30:23;;;;;;;2.63;2.10;;;17.60;65.80;;;;;;4940001;29;20124;-75
2023/07/06 03:32:49;;;;;;;3.20;2.00;;;17.60;65.90;;;;;;4955967;29;20027;-75
2023/07/06 03:35:16;;;;;;;2.70;2.10;;;17.60;65.80;;;;;;4956192;29;20031;-76
2023/07/06 03:37:43;;;;;;;3.10;2.10;;;17.60;65.90;;;;;;4956955;28;20082;-75
2023/07/06 03:40:13;;;;;;;2.55;1.95;;;17.60;66.60;;;;;;4940046;29;20035;-74
2023/07/06 03:42:42;;;;;;;2.85;2.03;;;17.60;65.90;;;;;;4940129;28;20046;-74
2023/07/06 03:45:10;;;;;;;3.30;2.00;;;17.50;65.90;;;;;;4957046;28;20019;-75
2023/07/06 03:47:42;;;;;;;2.85;2.17;;;17.50;65.90;;;;;;4957059;28;20396;-76
2023/07/06 03:50:09;;;;;;;2.75;2.25;;;17.50;65.90;;;;;;4955860;29;20038;-75
2023/07/06 03:52:37;;;;;;;2.60;1.90;;;17.50;66.00;;;;;;4955695;28;20483;-75
2023/07/06 03:55:12;;;;;;;2.05;1.83;;;17.50;65.90;;;;;;4955972;29;20035;-75
2023/07/06 03:57:39;;;;;;;2.70;1.77;;;17.50;66.00;;;;;;4956634;29;20035;-76
2023/07/06 04:00:10;;;;;;;2.05;1.85;;;17.50;66.00;;;;;;4955919;29;20035;-76
2023/07/06 04:02:37;;;;;;;2.92;2.00;;;17.50;66.00;;;;;;4956750;28;20500;-75
2023/07/06 04:05:03;;;;;;;2.28;1.73;;;17.50;65.90;;;;;;4955764;29;20067;-74
2023/07/06 04:07:29;;;;;;;3.90;2.08;;;17.50;66.00;;;;;;4955487;29;20133;-74
2023/07/06 04:09:55;;;;;;;3.50;2.00;;;17.50;66.00;;;;;;4956175;29;20042;-75
2023/07/06 04:12:20;;;;;;;2.47;2.00;;;17.50;66.00;;;;;;4955786;29;20039;-74
2023/07/06 04:14:46;;;;;;;3.13;2.15;;;17.40;66.00;;;;;;4956452;28;20038;-74
2023/07/06 04:17:16;;;;;;;2.30;1.92;;;17.50;66.10;;;;;;4939868;29;20038;-74
2023/07/06 04:19:42;;;;;;;2.67;2.00;;;17.50;66.10;;;;;;4939669;29;20114;-74
2023/07/06 04:22:08;;;;;;;2.72;1.80;;;17.50;66.10;;;;;;4955613;29;20042;-75
2023/07/06 04:24:34;;;;;;;3.28;1.92;;;17.50;66.10;;;;;;4956242;28;20039;-75
2023/07/06 04:27:00;;;;;;;2.28;1.67;;;17.40;66.10;;;;;;4955188;29;20496;-75
2023/07/06 04:29:29;;;;;;;2.72;2.00;;;17.40;66.10;;;;;;4955894;29;20035;-76
2023/07/06 04:31:56;;;;;;;2.63;2.10;;;17.40;66.10;;;;;;4955014;29;20385;-75
2023/07/06 04:34:24;;;;;;;2.83;1.63;;;17.40;66.10;;;;;;4956402;28;20031;-76
2023/07/06 04:36:50;;;;;;;2.33;1.85;;;17.40;66.10;;;;;;4939020;29;20520;-75
2023/07/06 04:39:16;;;;;;;2.88;1.98;;;17.40;66.20;;;;;;4954949;29;20037;-75
2023/07/06 04:41:44;;;;;;;2.70;1.80;;;17.40;66.20;;;;;;4938322;29;20039;-74
2023/07/06 04:44:11;;;;;;;2.00;1.70;;;17.40;66.20;;;;;;4939600;29;20555;-75
2023/07/06 04:46:38;;;;;;;2.22;1.60;;;17.40;66.20;;;;;;4938586;28;20094;-75
2023/07/06 04:49:05;;;;;;;2.20;1.80;;;17.40;66.20;;;;;;4939258;28;20559;-74
2023/07/06 04:51:31;;;;;;;4.00;2.03;;;17.40;66.20;;;;;;4956057;28;20034;-74
2023/07/06 04:53:58;;;;;;;2.92;2.00;;;17.40;66.20;;;;;;4954902;29;20361;-75
2023/07/06 04:56:24;;;;;;;3.42;2.05;;;17.40;66.20;;;;;;4956182;28;20038;-76
2023/07/06 04:58:50;;;;;;;2.42;1.70;;;17.40;66.20;;;;;;4954884;29;20043;-75
2023/07/06 05:01:16;;;;;;;2.75;1.92;;;17.40;66.20;;;;;;4954883;29;20032;-75
2023/07/06 05:03:41;;;;;;;3.25;1.98;;;17.40;66.20;;;;;;4955532;28;20124;-75
2023/07/06 05:06:12;;;;;;;2.17;1.90;;;17.40;66.30;;;;;;4954737;29;20110;-75
2023/07/06 05:08:39;;;;;;;3.45;1.80;;;17.40;66.30;;;;;;4955748;28;20468;-76
2023/07/06 05:11:05;;;;;;;3.17;2.03;;;17.40;66.20;;;;;;4953968;29;20035;-75
2023/07/06 05:13:32;;;;;;;3.10;1.98;;;17.40;66.20;;;;;;4954541;28;20042;-75
2023/07/06 05:15:58;;;;;;;2.30;1.50;;;17.40;66.30;;;;;;4956014;28;20058;-75
2023/07/06 05:18:24;;;;;;;2.67;1.90;;;17.40;66.20;;;;;;4954570;29;20042;-75
2023/07/06 05:20:51;;;;;;;2.50;1.80;;;17.40;66.20;;;;;;4938280;29;20032;-75
2023/07/06 05:23:18;;;;;;;2.20;1.70;;;17.40;66.30;;;;;;4953749;28;20042;-77
2023/07/06 05:25:44;;;;;;;2.35;1.90;;;17.40;66.30;;;;;;4954661;29;20407;-75
2023/07/06 05:28:10;;;;;;;3.08;1.75;;;17.40;66.30;;;;;;4938905;29;20090;-76
2023/07/06 05:30:42;;;;;;;3.05;1.92;;;17.40;66.30;;;;;;4954370;29;20131;-76
2023/07/06 05:33:08;;;;;;;2.58;1.88;;;17.40;66.30;;;;;;4954904;29;20440;-75
2023/07/06 05:35:35;;;;;;;2.85;1.95;;;17.40;66.30;;;;;;4955192;29;20070;-76
2023/07/06 05:38:00;;;;;;;2.75;1.90;;;17.40;66.30;;;;;;4954519;29;20146;-76
2023/07/06 05:40:27;;;;;;;2.42;1.83;;;17.40;66.30;;;;;;4953955;29;20063;-76
2023/07/06 05:42:57;;;;;;;2.47;1.80;;;17.40;66.40;;;;;;4938053;29;20027;-76
2023/07/06 05:45:24;;;;;;;2.60;1.67;;;17.40;66.40;;;;;;4954475;29;20043;-77
2023/07/06 05:47:50;;;;;;;2.85;1.88;;;17.40;66.30;;;;;;4955465;28;20051;-77
2023/07/06 05:50:16;;;;;;;2.45;2.00;;;17.50;66.40;;;;;;4955254;28;20057;-76
2023/07/06 05:52:42;;;;;;;2.28;1.80;;;17.50;66.40;;;;;;4956424;28;20048;-76
2023/07/06 05:55:08;;;;;;;2.40;1.88;;;17.50;66.40;;;;;;4957681;28;20110;-76
2023/07/06 05:57:34;;;;;;;3.15;1.83;;;17.50;66.40;;;;;;4957910;29;20039;-74
2023/07/06 06:00:01;;;;;;;2.40;1.90;;;17.50;66.40;;;;;;4958308;29;20435;-76
2023/07/06 06:02:30;;;;;;;2.90;2.00;;;17.50;66.40;;;;;;4957926;29;20039;-77
2023/07/06 06:04:56;;;;;;;3.22;2.03;;;17.50;66.30;;;;;;4957910;29;20110;-75
2023/07/06 06:07:22;;;;;;;2.40;1.75;;;17.50;66.40;;;;;;4958875;28;20075;-75
2023/07/06 06:09:48;;;;;;;3.33;1.85;;;17.60;66.40;;;;;;4941778;28;20054;-74
2023/07/06 06:12:18;;;;;;;2.83;2.08;;;17.50;66.40;;;;;;4959002;28;20544;-75
2023/07/06 06:14:48;;;;;;;3.67;2.20;;;17.60;66.40;;;;;;4957793;29;20035;-75
2023/07/06 06:17:16;;;;;;;3.40;2.00;;;17.60;66.50;;;;;;4957716;29;20046;-76
2023/07/06 06:19:42;;;;;;;3.53;2.13;;;17.60;66.40;;;;;;4957824;29;20047;-75
2023/07/06 06:22:09;;;;;;;3.53;1.92;;;17.60;66.40;;;;;;4957543;28;20526;-76
2023/07/06 06:24:35;;;;;;;3.40;1.90;;;17.60;66.50;;;;;;4958464;29;20034;-76
2023/07/06 06:27:01;;;;;;;2.58;2.08;;;17.60;66.50;;;;;;4957625;29;20051;-76
2023/07/06 06:29:27;;;;;;;4.43;2.33;;;17.60;66.40;;;;;;4958278;29;20036;-76
2023/07/06 06:31:54;;;;;;;3.22;2.05;;;17.60;66.40;;;;;;4958764;28;20470;-77
2023/07/06 06:34:19;;;;;;;4.47;2.50;;;17.70;66.50;;;;;;4941302;29;20038;-76
2023/07/06 06:36:47;;;;;;;3.35;2.10;;;17.70;66.50;;;;;;4958329;28;20027;-75
2023/07/06 06:39:12;;;;;;;3.60;2.28;;;17.70;66.50;;;;;;4957152;29;20035;-75
2023/07/06 06:41:39;;;;;;;4.30;2.75;;;17.70;66.50;;;;;;4957016;29;20102;-75
2023/07/06 06:44:06;;;;;;;3.50;2.30;;;17.70;66.50;;;;;;4941510;29;20098;-75
2023/07/06 06:46:32;;;;;;;3.22;2.17;;;17.70;66.40;;;;;;4957227;28;20051;-76
2023/07/06 06:48:58;;;;;;;4.00;2.13;;;17.80;66.50;;;;;;4941818;28;20039;-75
2023/07/06 06:51:24;;;;;;;3.55;2.38;;;17.80;66.50;;;;;;4941980;29;20535;-75
2023/07/06 06:53:53;;;;;;;3.63;2.40;;;17.70;66.40;;;;;;4957929;28;20038;-74
2023/07/06 06:56:19;;;;;;;3.90;2.55;;;17.80;66.50;;;;;;4956813;29;20039;-74
2023/07/06 06:58:46;;;;;;;3.72;2.30;;;17.80;66.50;;;;;;4957194;29;20082;-79
2023/07/06 07:01:15;;;;;;;3.60;2.50;;;17.80;66.50;;;;;;4957853;28;20039;-77
2023/07/06 07:03:41;;;;;;;3.25;2.45;;;17.80;66.40;;;;;;4956586;28;20038;-77
2023/07/06 07:06:12;;;;;;;3.83;2.40;;;17.90;66.50;;;;;;4957579;29;20027;-76
2023/07/06 07:08:43;;;;;;;4.80;2.75;;;17.90;66.50;;;;;;4958046;28;20536;-76
2023/07/06 07:11:13;;;;;;;3.50;2.55;;;17.90;66.50;;;;;;4941472;29;20118;-76
2023/07/06 07:13:40;;;;;;;3.42;2.50;;;17.90;66.40;;;;;;4957856;28;20034;-75
2023/07/06 07:16:11;;;;;;;4.80;2.40;;;18.00;66.50;;;;;;4957551;28;20519;-76
2023/07/06 07:18:38;;;;;;;5.00;2.60;;;18.00;66.40;;;;;;4957307;28;20039;-76
2023/07/06 07:21:06;;;;;;;3.72;2.60;;;18.00;66.40;;;;;;4940864;29;20031;-76
2023/07/06 07:23:41;;;;;;;3.33;2.30;;;18.00;66.40;;;;;;4957749;28;20031;-74
2023/07/06 07:26:16;;;;;;;3.55;2.28;;;18.00;66.40;;;;;;4957375;29;20337;-75
2023/07/06 07:28:42;;;;;;;;;;;18.10;66.40;;;;;;4956531;28;20075;-75
2023/07/06 07:31:11;;;;;;;2.75;2.08;;;18.10;66.00;;;;;;4940498;28;19949;-74
2023/07/06 07:33:43;;;;;;;3.78;2.38;;;18.10;66.00;;;;;;4956126;29;20369;-77
2023/07/06 07:36:11;;;;;;;3.33;2.38;;;18.20;66.20;;;;;;4958619;28;20059;-77
2023/07/06 07:38:38;;;;;;;3.67;2.60;;;18.20;66.20;;;;;;4957569;29;20110;-75
2023/07/06 07:41:06;;;;;;;4.63;2.65;;;18.30;66.20;;;;;;4960499;28;20031;-75
2023/07/06 07:43:34;;;;;;;4.00;2.60;;;18.30;66.20;;;;;;4944195;28;20361;-76
2023/07/06 07:46:03;;;;;;;3.92;2.55;;;18.30;66.20;;;;;;4959960;28;20055;-75
2023/07/06 07:48:35;;;;;;;4.15;2.60;;;18.30;66.10;;;;;;4959309;28;20035;-76
2023/07/06 07:51:04;;;;;;;3.95;2.47;;;18.30;66.10;;;;;;4957651;28;20046;-75
2023/07/06 07:53:36;;;;;;;3.33;2.58;;;18.40;66.10;;;;;;4957496;28;20027;-74
2023/07/06 07:56:04;;;;;;;3.05;2.25;;;18.40;66.10;;;;;;4956896;28;20507;-75
2023/07/06 07:58:31;;;;;;;3.97;2.80;;;18.50;66.10;;;;;;4956097;29;20106;-75
2023/07/06 08:00:57;;;;;;;5.20;3.00;;;18.50;66.00;;;;;;4957264;28;20456;-75
2023/07/06 08:03:24;;;;;;;3.65;2.75;;;18.60;66.00;;;;;;4939983;29;20058;-74
2023/07/06 08:05:57;;;;;;;4.72;3.10;;;18.60;66.00;;;;;;4956115;28;20113;-75
2023/07/06 08:08:24;;;;;;;4.07;2.83;;;18.70;66.10;;;;;;4957005;28;20131;-74
2023/07/06 08:10:51;;;;;;;4.45;2.92;;;18.70;65.90;;;;;;4940450;29;20086;-73
2023/07/06 08:13:17;;;;;;;4.25;3.00;;;18.70;65.90;;;;;;4939398;29;20036;-74
2023/07/06 08:15:47;;;;;;;4.47;3.10;;;18.80;65.90;;;;;;4955337;28;20455;-74
2023/07/06 08:18:13;;;;;;;3.97;2.70;;;18.80;65.90;;;;;;4939532;29;20031;-74
2023/07/06 08:20:41;;;;;;;4.03;2.63;;;18.90;65.90;;;;;;4956421;28;20027;-74
2023/07/06 08:23:11;;;;;;;3.25;2.65;;;18.90;65.80;;;;;;4939412;29;20498;-75
2023/07/06 08:25:41;;;;;;;4.57;2.70;;;19.00;65.80;;;;;;4939292;29;20491;-74
2023/07/06 08:28:10;;;;;;;4.07;2.72;;;19.00;65.70;;;;;;4955678;29;20039;-74
2023/07/06 08:30:38;;;;;;;3.80;2.63;;;19.10;65.60;;;;;;4956541;29;20032;-74
2023/07/06 08:33:04;;;;;;;3.13;2.38;;;19.20;65.60;;;;;;4956090;29;20038;-74
2023/07/06 08:35:31;;;;;;;4.05;2.83;;;19.20;65.50;;;;;;4955565;29;20118;-75
2023/07/06 08:37:57;;;;;;;4.05;2.67;;;19.30;65.50;;;;;;4939355;29;20039;-75
2023/07/06 08:40:28;;;;;;;3.85;2.67;;;19.40;65.40;;;;;;4955973;28;20063;-74
2023/07/06 08:42:58;;;;;;;4.32;2.90;;;19.40;65.40;;;;;;4956591;28;20420;-74
2023/07/06 08:45:46;;;;;;;4.28;2.97;;;19.50;65.30;;;;;;4954758;29;20027;-75
2023/07/06 08:48:18;;;;;;;3.15;2.45;;;19.50;65.30;;;;;;4955747;28;20039;-74
2023/07/06 08:50:51;;;;;;;4.63;2.85;;;19.60;65.20;;;;;;4955863;28;20073;-74
2023/07/06 08:53:20;;;;;;;3.75;2.78;;;19.70;65.20;;;;;;4955797;28;20525;-75
2023/07/06 08:55:49;;;;;;;4.82;2.85;;;19.70;65.10;;;;;;4954546;29;20027;-75
2023/07/06 08:58:29;;;;;;;3.53;2.78;;;19.80;65.10;;;;;;4939227;29;20046;-74
2023/07/06 09:01:11;;;;;;;3.72;2.75;;;19.80;65.10;;;;;;4956228;28;20381;-75
2023/07/06 09:03:46;;;;;;;3.60;2.55;;;19.80;64.90;;;;;;4938666;29;20388;-75
2023/07/06 09:06:18;;;;;;;4.00;2.63;;;19.90;64.90;;;;;;4938721;29;20040;-75
2023/07/06 09:08:46;;;;;;;5.22;3.03;;;20.00;64.80;;;;;;4955591;28;20046;-75
2023/07/06 09:11:13;;;;;;;4.82;3.40;;;20.00;64.80;;;;;;4954549;29;20041;-75
2023/07/06 09:13:49;;;;;;;3.45;2.90;;;20.10;64.80;;;;;;4922556;29;20039;-75
2023/07/06 09:16:19;;;;;;;3.80;2.80;;;20.10;64.80;;;;;;4954369;29;20039;-74
2023/07/06 09:18:46;;;;;;;4.28;3.10;;;20.20;64.70;;;;;;4955719;29;20058;-74
2023/07/06 09:21:12;;;;;;;3.92;2.97;;;20.20;64.70;;;;;;4955432;28;20121;-74
2023/07/06 09:23:38;;;;;;;4.32;2.83;;;20.20;64.60;;;;;;4955041;29;20039;-74
2023/07/06 09:26:08;;;;;;;4.40;3.25;;;20.30;64.60;;;;;;4954143;29;20042;-74
2023/07/06 09:28:34;;;;;;;4.07;2.97;;;20.30;64.60;;;;;;4954817;28;20075;-74
2023/07/06 09:31:18;;;;;;;3.88;2.75;;;20.40;64.50;;;;;;4955825;29;20273;-75
2023/07/06 09:33:53;;;;;;;3.50;2.75;;;20.40;64.50;;;;;;4954691;29;20127;-74
2023/07/06 09:36:25;;;;;;;3.65;2.67;;;20.50;64.60;;;;;;4938342;29;20393;-74
2023/07/06 09:38:52;;;;;;;2.90;2.53;;;20.50;64.50;;;;;;4955736;28;20392;-74
2023/07/06 09:41:24;;;;;;;3.97;2.80;;;20.60;64.40;;;;;;4938435;29;20395;-74
2023/07/06 09:43:58;;;;;;;4.05;3.13;;;20.60;64.40;;;;;;4954568;29;20465;-74
2023/07/06 09:46:36;;;;;;;3.20;2.45;;;20.70;64.30;;;;;;4955018;28;20059;-75
2023/07/06 09:49:02;;;;;;;4.00;2.72;;;20.70;64.30;;;;;;4953793;28;20120;-75
2023/07/06 09:51:50;;;;;;;3.08;2.70;;;20.80;64.20;;;;;;4953839;28;20039;-75
2023/07/06 09:54:57;;;;;;;3.28;2.60;;;20.90;64.30;;;;;;4938936;29;20118;-74
2023/07/06 09:57:25;;;;;;;2.58;2.05;;;21.00;64.20;;;;;;4953978;28;20031;-74
2023/07/06 09:59:52;;;;;;;3.30;2.53;;;21.10;63.90;;;;;;4955181;28;20028;-75
2023/07/06 10:02:23;;;;;;;3.33;2.40;;;21.10;63.90;;;;;;4938281;29;20039;-76
2023/07/06 10:05:10;;;;;;;3.88;2.80;;;21.20;63.80;;;;;;4955003;28;20388;-76
2023/07/06 10:07:59;;;;;;;3.17;2.30;;;21.30;63.90;;;;;;4953906;29;20039;-76
2023/07/06 10:10:43;;;;;;;4.57;2.58;;;21.30;63.60;;;;;;4954372;29;20024;-76
2023/07/06 10:13:21;;;;;;;2.85;2.20;;;21.40;63.50;;;;;;4954520;29;20027;-76
2023/07/06 10:16:21;;;;;;;3.10;2.35;;;21.50;64.00;;;;;;4953794;29;20043;-76
2023/07/06 10:19:03;;;;;;;3.08;2.40;;;21.60;63.30;;;;;;4949627;28;20078;-77
2023/07/06 10:21:40;;;;;;;3.20;2.20;;;21.70;63.20;;;;;;4954832;29;20042;-76
2023/07/06 10:24:22;;;;;;;3.22;2.38;;;21.80;63.10;;;;;;4953992;29;20034;-76
2023/07/06 10:26:52;;;;;;;3.35;2.40;;;21.90;63.00;;;;;;4953855;29;20027;-75
2023/07/06 10:29:37;;;;;;;3.53;2.20;;;22.00;62.80;;;;;;4937944;29;20028;-76
2023/07/06 10:32:26;;;;;;;2.85;2.03;;;22.00;62.70;;;;;;4955909;28;20055;-76
2023/07/06 10:34:55;;;;;;;4.28;2.58;;;22.10;62.70;;;;;;4955452;28;20035;-77
2023/07/06 10:37:25;;;;;;;4.05;2.40;;;22.20;62.60;;;;;;4953714;29;20031;-75
2023/07/06 10:39:54;;;;;;;3.35;2.60;;;22.20;62.50;;;;;;4955406;28;20065;-75
2023/07/06 10:42:25;;;;;;;3.15;2.30;;;22.30;62.50;;;;;;4958289;29;20082;-75
2023/07/06 10:44:55;;;;;;;3.58;2.40;;;22.30;62.40;;;;;;4957223;29;20495;-75
2023/07/06 10:47:37;;;;;;;3.13;2.50;;;22.40;63.10;;;;;;4941031;29;20094;-76
2023/07/06 10:50:08;;;;;;;3.88;2.38;;;22.50;62.40;;;;;;4957454;28;20572;-77
2023/07/06 10:52:45;;;;;;;3.03;2.25;;;22.60;62.30;;;;;;4957804;29;20038;-76
2023/07/06 10:55:18;;;;;;;4.00;2.47;;;22.70;62.30;;;;;;4941241;29;20130;-76
2023/07/06 10:57:53;;;;;;;2.38;2.00;;;22.70;62.20;;;;;;4957208;29;20046;-77
2023/07/06 11:00:29;;;;;;;3.33;2.00;;;22.80;62.20;;;;;;4956863;29;20555;-76
2023/07/06 11:02:56;;;;;;;2.90;2.13;;;22.80;62.10;;;;;;4957368;29;20076;-76
2023/07/06 11:05:33;;;;;;;1.98;1.83;;;22.90;62.00;;;;;;4958254;28;20047;-79
2023/07/06 11:08:02;;;;;;;3.20;2.28;;;23.00;62.20;;;;;;4957575;29;20102;-75
2023/07/06 11:10:43;;;;;;;3.83;2.30;;;23.00;62.10;;;;;;4941068;29;20031;-76
2023/07/06 11:13:09;;;;;;;2.70;2.08;;;23.10;62.10;;;;;;4957477;29;20127;-76
2023/07/06 11:16:02;;;;;;;2.83;2.03;;;23.10;62.00;;;;;;4956856;29;20527;-76
2023/07/06 11:18:44;;;;;;;2.13;1.92;;;23.10;62.20;;;;;;4957687;28;20035;-76
2023/07/06 11:21:36;;;;;;;2.28;1.88;;;23.20;62.20;;;;;;4956947;29;20035;-76
2023/07/06 11:24:07;;;;;;;2.53;2.10;;;23.20;62.30;;;;;;4956752;29;20410;-76
2023/07/06 11:26:56;;;;;;;3.22;2.13;;;23.30;62.20;;;;;;4956826;28;20066;-75
2023/07/06 11:29:28;;;;;;;3.17;1.88;;;23.30;62.30;;;;;;4956741;29;20039;-76
2023/07/06 11:32:20;;;;;;;3.17;2.10;;;23.40;62.40;;;;;;4957842;28;20483;-75
2023/07/06 11:35:24;;;;;;;2.45;1.95;;;23.40;62.60;;;;;;4956466;29;20024;-76
2023/07/06 11:38:17;;;;;;;2.80;1.95;;;23.40;62.70;;;;;;4940699;29;20039;-76
2023/07/06 11:40:55;;;;;;;2.78;1.88;;;23.50;62.90;;;;;;4940356;29;20063;-76
2023/07/06 11:43:39;;;;;;;2.55;1.83;;;23.50;62.80;;;;;;4956425;29;20035;-76
2023/07/06 11:46:14;;;;;;;2.65;1.98;;;23.60;63.00;;;;;;4940033;28;20051;-76
2023/07/06 11:48:55;;;;;;;2.25;1.80;;;23.60;62.80;;;;;;4940093;29;20053;-76
2023/07/06 11:51:21;;;;;;;2.13;1.88;;;23.60;62.90;;;;;;4957139;28;20023;-75
2023/07/06 11:53:56;;;;;;;2.58;1.90;;;23.70;62.90;;;;;;4939995;28;20035;-76
2023/07/06 11:59:36;;;;;;;2.28;1.70;;;23.80;63.10;;;;;;4955877;29;20477;-75
2023/07/06 12:02:14;;;;;;;2.45;1.77;;;23.80;63.10;;;;;;4957101;28;20030;-76
2023/07/06 12:04:40;;;;;;;2.75;1.95;;;23.80;63.00;;;;;;4956098;28;20456;-76
2023/07/06 12:07:26;;;;;;;2.58;1.98;;;23.90;62.90;;;;;;4939641;28;20031;-76
2023/07/06 12:09:52;;;;;;;2.17;1.75;;;24.00;62.90;;;;;;4957197;29;20037;-76
2023/07/06 12:12:23;;;;;;;2.58;1.90;;;24.00;62.70;;;;;;4943042;29;20476;-76
2023/07/06 12:14:56;;;;;;;2.88;1.98;;;24.00;62.70;;;;;;4948434;28;20472;-76
2023/07/06 12:17:23;;;;;;;2.50;1.90;;;24.10;62.80;;;;;;4968125;28;20039;-77
2023/07/06 12:19:56;;;;;;;2.40;2.15;;;24.10;62.60;;;;;;4948533;29;20035;-76
2023/07/06 12:22:23;;;;;;;2.88;2.15;;;24.10;62.60;;;;;;4959665;29;20050;-75
2023/07/06 12:24:52;;;;;;;2.60;1.75;;;24.20;62.50;;;;;;4959534;29;20070;-76
2023/07/06 12:27:18;;;;;;;3.13;1.92;;;24.20;62.50;;;;;;4940312;29;20043;-75
2023/07/06 12:29:45;;;;;;;2.42;1.75;;;24.20;62.40;;;;;;4955791;29;20091;-76
2023/07/06 12:32:21;;;;;;;2.13;1.90;;;24.30;62.50;;;;;;4955896;29;20088;-76
2023/07/06 12:34:53;;;;;;;2.70;2.13;;;24.30;62.40;;;;;;4955711;29;20031;-76
2023/07/06 12:37:21;;;;;;;2.67;1.70;;;24.30;62.40;;;;;;4939373;29;20035;-76
2023/07/06 12:39:49;;;;;;;2.38;1.65;;;24.30;62.40;;;;;;4955662;29;20480;-77
2023/07/06 12:42:20;;;;;;;2.85;1.80;;;24.30;62.30;;;;;;4955018;29;20501;-76
2023/07/06 12:44:50;;;;;;;3.70;2.00;;;24.30;62.30;;;;;;4938977;28;20075;-76
2023/07/06 12:47:20;;;;;;;2.60;1.83;;;24.30;62.30;;;;;;4938504;29;20054;-77
2023/07/06 12:49:47;;;;;;;3.13;2.10;;;24.30;62.90;;;;;;4955813;28;20046;-77
2023/07/06 12:52:13;;;;;;;3.17;2.13;;;24.30;62.20;;;;;;4939455;29;20156;-77
2023/07/06 12:54:49;;;;;;;2.10;1.88;;;24.30;62.10;;;;;;4954718;29;20028;-77
2023/07/06 12:57:24;;;;;;;2.28;1.85;;;24.30;62.10;;;;;;4954774;29;20042;-77
2023/07/06 12:59:55;;;;;;;2.80;1.83;;;24.30;62.10;;;;;;4955298;29;20038;-77
2023/07/06 13:02:24;;;;;;;2.83;1.80;;;24.30;62.10;;;;;;4938626;29;20452;-76
2023/07/06 13:04:51;;;;;;;2.40;1.73;;;24.30;62.10;;;;;;4954930;29;20035;-76
2023/07/06 13:07:28;;;;;;;2.22;1.65;;;24.30;62.10;;;;;;4954487;29;20047;-77
2023/07/06 13:09:54;;;;;;;2.25;1.70;;;24.30;62.00;;;;;;4954521;29;20445;-76